sensor_id;sensor_type;location;lat;lon;timestamp;temperature;humidity
37544;DHT22;23385;52.038;20.322;2022-09-24T00:01:15;4.00;99.90
37544;DHT22;23385;52.038;20.322;2022-09-24T00:03:43;4.00;99.90
37544;DHT22;23385;52.038;20.322;2022-09-24T00:06:12;4.00;99.90
37544;DHT22;23385;52.038;20.322;2022-09-24T00:08:44;3.90;99.90
37544;DHT22;23385;52.038;20.322;2022-09-24T00:11:10;3.90;99.90
37544;DHT22;23385;52.038;20.322;2022-09-24T00:13:37;3.80;99.90
37544;DHT22;23385;52.038;20.322;2022-09-24T00:16:06;3.70;99.90
37544;DHT22;23385;52.038;20.322;2022-09-24T00:18:33;3.70;99.90
37544;DHT22;23385;52.038;20.322;2022-09-24T00:20:59;3.60;99.90
37544;DHT22;23385;52.038;20.322;2022-09-24T00:23:25;3.60;99.90
37544;DHT22;23385;52.038;20.322;2022-09-24T00:25:51;3.60;99.90
37544;DHT22;23385;52.038;20.322;2022-09-24T00:28:36;3.60;99.90
37544;DHT22;23385;52.038;20.322;2022-09-24T00:31:06;3.60;99.90
37544;DHT22;23385;52.038;20.322;2022-09-24T00:33:33;3.60;99.90
37544;DHT22;23385;52.038;20.322;2022-09-24T00:36:02;3.60;99.90
37544;DHT22;23385;52.038;20.322;2022-09-24T00:38:30;3.60;99.90
37544;DHT22;23385;52.038;20.322;2022-09-24T00:40:57;3.60;99.90
37544;DHT22;23385;52.038;20.322;2022-09-24T00:43:35;3.60;99.90
37544;DHT22;23385;52.038;20.322;2022-09-24T00:46:16;3.60;99.90
37544;DHT22;23385;52.038;20.322;2022-09-24T00:48:45;3.60;99.90
37544;DHT22;23385;52.038;20.322;2022-09-24T00:51:15;3.60;99.90
37544;DHT22;23385;52.038;20.322;2022-09-24T00:53:43;3.60;99.90
37544;DHT22;23385;52.038;20.322;2022-09-24T00:56:12;3.50;99.90
37544;DHT22;23385;52.038;20.322;2022-09-24T00:58:52;3.50;99.90
37544;DHT22;23385;52.038;20.322;2022-09-24T01:01:20;3.50;99.90
37544;DHT22;23385;52.038;20.322;2022-09-24T01:03:48;3.50;99.90
37544;DHT22;23385;52.038;20.322;2022-09-24T01:06:15;3.40;99.90
37544;DHT22;23385;52.038;20.322;2022-09-24T01:08:41;3.40;99.90
37544;DHT22;23385;52.038;20.322;2022-09-24T01:11:35;3.40;99.90
37544;DHT22;23385;52.038;20.322;2022-09-24T01:22:02;3.30;99.90
37544;DHT22;23385;52.038;20.322;2022-09-24T01:25:06;3.30;99.90
37544;DHT22;23385;52.038;20.322;2022-09-24T01:30:24;3.20;99.90
37544;DHT22;23385;52.038;20.322;2022-09-24T01:32:56;3.10;99.90
37544;DHT22;23385;52.038;20.322;2022-09-24T01:35:36;3.00;99.90
37544;DHT22;23385;52.038;20.322;2022-09-24T01:38:13;3.00;99.90
37544;DHT22;23385;52.038;20.322;2022-09-24T01:40:41;3.00;99.90
37544;DHT22;23385;52.038;20.322;2022-09-24T01:43:09;3.00;99.90
37544;DHT22;23385;52.038;20.322;2022-09-24T01:45:37;2.90;99.90
37544;DHT22;23385;52.038;20.322;2022-09-24T01:48:04;2.90;99.90
37544;DHT22;23385;52.038;20.322;2022-09-24T01:50:49;2.90;99.90
37544;DHT22;23385;52.038;20.322;2022-09-24T01:53:19;2.90;99.90
37544;DHT22;23385;52.038;20.322;2022-09-24T01:55:49;2.90;99.90
37544;DHT22;23385;52.038;20.322;2022-09-24T01:58:28;2.90;99.90
37544;DHT22;23385;52.038;20.322;2022-09-24T02:01:08;2.90;99.90
37544;DHT22;23385;52.038;20.322;2022-09-24T02:03:38;2.80;99.90
37544;DHT22;23385;52.038;20.322;2022-09-24T02:06:12;2.80;99.90
37544;DHT22;23385;52.038;20.322;2022-09-24T02:08:42;2.80;99.90
37544;DHT22;23385;52.038;20.322;2022-09-24T02:11:18;2.70;99.90
37544;DHT22;23385;52.038;20.322;2022-09-24T02:19:00;2.60;99.90
37544;DHT22;23385;52.038;20.322;2022-09-24T02:21:28;2.60;99.90
37544;DHT22;23385;52.038;20.322;2022-09-24T02:24:07;2.60;99.90
37544;DHT22;23385;52.038;20.322;2022-09-24T02:26:35;2.50;99.90
37544;DHT22;23385;52.038;20.322;2022-09-24T02:29:01;2.50;99.90
37544;DHT22;23385;52.038;20.322;2022-09-24T02:31:33;2.50;99.90
37544;DHT22;23385;52.038;20.322;2022-09-24T02:34:06;2.50;99.90
37544;DHT22;23385;52.038;20.322;2022-09-24T02:37:07;2.50;99.90
37544;DHT22;23385;52.038;20.322;2022-09-24T02:39:31;2.50;99.90
37544;DHT22;23385;52.038;20.322;2022-09-24T02:42:00;2.50;99.90
37544;DHT22;23385;52.038;20.322;2022-09-24T02:44:27;2.40;99.90
37544;DHT22;23385;52.038;20.322;2022-09-24T02:46:55;2.40;99.90
37544;DHT22;23385;52.038;20.322;2022-09-24T02:49:21;2.40;99.90
37544;DHT22;23385;52.038;20.322;2022-09-24T02:51:47;2.40;99.90
37544;DHT22;23385;52.038;20.322;2022-09-24T02:54:13;2.40;99.90
37544;DHT22;23385;52.038;20.322;2022-09-24T02:56:40;2.30;99.90
37544;DHT22;23385;52.038;20.322;2022-09-24T02:59:07;2.30;99.90
37544;DHT22;23385;52.038;20.322;2022-09-24T03:01:33;2.30;99.90
37544;DHT22;23385;52.038;20.322;2022-09-24T03:03:59;2.30;99.90
37544;DHT22;23385;52.038;20.322;2022-09-24T03:06:26;2.30;99.90
37544;DHT22;23385;52.038;20.322;2022-09-24T03:08:52;2.30;99.90
37544;DHT22;23385;52.038;20.322;2022-09-24T03:11:20;2.30;99.90
37544;DHT22;23385;52.038;20.322;2022-09-24T03:13:46;2.20;99.90
37544;DHT22;23385;52.038;20.322;2022-09-24T03:16:12;2.30;99.90
37544;DHT22;23385;52.038;20.322;2022-09-24T03:18:38;2.20;99.90
37544;DHT22;23385;52.038;20.322;2022-09-24T03:21:10;2.20;99.90
37544;DHT22;23385;52.038;20.322;2022-09-24T03:23:38;2.20;99.90
37544;DHT22;23385;52.038;20.322;2022-09-24T03:26:04;2.20;99.90
37544;DHT22;23385;52.038;20.322;2022-09-24T03:28:33;2.20;99.90
37544;DHT22;23385;52.038;20.322;2022-09-24T03:30:59;2.20;99.90
37544;DHT22;23385;52.038;20.322;2022-09-24T03:33:32;2.20;99.90
37544;DHT22;23385;52.038;20.322;2022-09-24T03:36:36;2.20;99.90
37544;DHT22;23385;52.038;20.322;2022-09-24T03:38:56;2.20;99.90
37544;DHT22;23385;52.038;20.322;2022-09-24T03:41:25;2.20;99.90
37544;DHT22;23385;52.038;20.322;2022-09-24T03:43:52;2.20;99.90
37544;DHT22;23385;52.038;20.322;2022-09-24T03:46:17;2.20;99.90
37544;DHT22;23385;52.038;20.322;2022-09-24T03:48:43;2.20;99.90
37544;DHT22;23385;52.038;20.322;2022-09-24T03:51:17;2.10;99.90
37544;DHT22;23385;52.038;20.322;2022-09-24T03:53:43;2.10;99.90
37544;DHT22;23385;52.038;20.322;2022-09-24T03:56:10;2.10;99.90
37544;DHT22;23385;52.038;20.322;2022-09-24T03:58:37;2.10;99.90
37544;DHT22;23385;52.038;20.322;2022-09-24T04:01:08;2.10;99.90
37544;DHT22;23385;52.038;20.322;2022-09-24T04:03:36;2.10;99.90
37544;DHT22;23385;52.038;20.322;2022-09-24T04:06:02;2.10;99.90
37544;DHT22;23385;52.038;20.322;2022-09-24T04:08:28;2.10;99.90
37544;DHT22;23385;52.038;20.322;2022-09-24T04:10:56;2.10;99.90
37544;DHT22;23385;52.038;20.322;2022-09-24T04:13:22;2.00;99.90
37544;DHT22;23385;52.038;20.322;2022-09-24T04:15:48;2.10;99.90
37544;DHT22;23385;52.038;20.322;2022-09-24T04:18:14;2.00;99.90
37544;DHT22;23385;52.038;20.322;2022-09-24T04:20:40;2.00;99.90
37544;DHT22;23385;52.038;20.322;2022-09-24T04:23:07;2.00;99.90
37544;DHT22;23385;52.038;20.322;2022-09-24T04:25:33;2.00;99.90
37544;DHT22;23385;52.038;20.322;2022-09-24T04:28:02;2.00;99.90
37544;DHT22;23385;52.038;20.322;2022-09-24T04:30:29;2.00;99.90
37544;DHT22;23385;52.038;20.322;2022-09-24T04:32:55;2.10;99.90
37544;DHT22;23385;52.038;20.322;2022-09-24T04:35:27;2.10;99.90
37544;DHT22;23385;52.038;20.322;2022-09-24T04:37:54;2.10;99.90
37544;DHT22;23385;52.038;20.322;2022-09-24T04:40:21;2.10;99.90
37544;DHT22;23385;52.038;20.322;2022-09-24T04:42:47;2.10;99.90
37544;DHT22;23385;52.038;20.322;2022-09-24T04:45:15;2.10;99.90
37544;DHT22;23385;52.038;20.322;2022-09-24T04:47:44;2.10;99.90
37544;DHT22;23385;52.038;20.322;2022-09-24T04:50:10;2.10;99.90
37544;DHT22;23385;52.038;20.322;2022-09-24T04:52:37;2.10;99.90
37544;DHT22;23385;52.038;20.322;2022-09-24T04:55:04;2.10;99.90
37544;DHT22;23385;52.038;20.322;2022-09-24T04:57:30;2.10;99.90
37544;DHT22;23385;52.038;20.322;2022-09-24T05:00:01;2.10;99.90
37544;DHT22;23385;52.038;20.322;2022-09-24T05:02:27;2.10;99.90
37544;DHT22;23385;52.038;20.322;2022-09-24T05:04:54;2.10;99.90
37544;DHT22;23385;52.038;20.322;2022-09-24T05:07:19;2.20;99.90
37544;DHT22;23385;52.038;20.322;2022-09-24T05:09:46;2.20;99.90
37544;DHT22;23385;52.038;20.322;2022-09-24T05:12:12;2.20;99.90
37544;DHT22;23385;52.038;20.322;2022-09-24T05:14:39;2.20;99.90
37544;DHT22;23385;52.038;20.322;2022-09-24T05:17:05;2.30;99.90
37544;DHT22;23385;52.038;20.322;2022-09-24T05:19:32;2.30;99.90
37544;DHT22;23385;52.038;20.322;2022-09-24T05:21:58;2.30;99.90
37544;DHT22;23385;52.038;20.322;2022-09-24T05:24:24;2.40;99.90
37544;DHT22;23385;52.038;20.322;2022-09-24T05:26:50;2.40;99.90
37544;DHT22;23385;52.038;20.322;2022-09-24T05:29:41;2.50;99.90
37544;DHT22;23385;52.038;20.322;2022-09-24T05:32:11;2.60;99.90
37544;DHT22;23385;52.038;20.322;2022-09-24T05:34:39;2.70;99.90
37544;DHT22;23385;52.038;20.322;2022-09-24T05:37:08;2.80;99.90
37544;DHT22;23385;52.038;20.322;2022-09-24T05:39:34;2.90;99.90
37544;DHT22;23385;52.038;20.322;2022-09-24T05:42:00;3.00;99.90
37544;DHT22;23385;52.038;20.322;2022-09-24T05:44:30;3.10;99.90
37544;DHT22;23385;52.038;20.322;2022-09-24T05:46:56;3.20;99.90
37544;DHT22;23385;52.038;20.322;2022-09-24T05:49:22;3.30;99.90
37544;DHT22;23385;52.038;20.322;2022-09-24T05:51:49;3.40;99.90
37544;DHT22;23385;52.038;20.322;2022-09-24T05:54:18;3.60;99.90
37544;DHT22;23385;52.038;20.322;2022-09-24T05:56:44;3.80;99.90
37544;DHT22;23385;52.038;20.322;2022-09-24T05:59:11;3.90;99.90
37544;DHT22;23385;52.038;20.322;2022-09-24T06:01:37;4.10;99.90
37544;DHT22;23385;52.038;20.322;2022-09-24T06:04:03;4.30;99.90
37544;DHT22;23385;52.038;20.322;2022-09-24T06:06:29;4.40;99.90
37544;DHT22;23385;52.038;20.322;2022-09-24T06:08:55;4.60;99.90
37544;DHT22;23385;52.038;20.322;2022-09-24T06:11:21;4.70;99.90
37544;DHT22;23385;52.038;20.322;2022-09-24T06:13:50;4.90;99.90
37544;DHT22;23385;52.038;20.322;2022-09-24T06:16:17;5.00;99.90
37544;DHT22;23385;52.038;20.322;2022-09-24T06:18:43;5.10;99.90
37544;DHT22;23385;52.038;20.322;2022-09-24T06:21:12;5.30;99.90
37544;DHT22;23385;52.038;20.322;2022-09-24T06:23:38;5.40;99.90
37544;DHT22;23385;52.038;20.322;2022-09-24T06:26:05;5.50;99.90
37544;DHT22;23385;52.038;20.322;2022-09-24T06:28:33;5.60;99.90
37544;DHT22;23385;52.038;20.322;2022-09-24T06:30:59;5.70;99.90
37544;DHT22;23385;52.038;20.322;2022-09-24T06:33:25;5.80;99.90
37544;DHT22;23385;52.038;20.322;2022-09-24T06:35:51;5.90;99.90
37544;DHT22;23385;52.038;20.322;2022-09-24T06:38:19;6.00;99.90
37544;DHT22;23385;52.038;20.322;2022-09-24T06:40:45;6.10;99.90
37544;DHT22;23385;52.038;20.322;2022-09-24T06:43:13;6.20;99.90
37544;DHT22;23385;52.038;20.322;2022-09-24T06:45:40;6.30;99.90
37544;DHT22;23385;52.038;20.322;2022-09-24T06:48:09;6.40;99.90
37544;DHT22;23385;52.038;20.322;2022-09-24T06:50:39;6.60;99.90
37544;DHT22;23385;52.038;20.322;2022-09-24T06:53:05;6.80;99.90
37544;DHT22;23385;52.038;20.322;2022-09-24T06:55:32;7.10;99.90
37544;DHT22;23385;52.038;20.322;2022-09-24T06:58:12;7.40;99.90
37544;DHT22;23385;52.038;20.322;2022-09-24T07:00:41;7.70;99.90
37544;DHT22;23385;52.038;20.322;2022-09-24T07:03:16;7.90;99.90
37544;DHT22;23385;52.038;20.322;2022-09-24T07:05:42;8.10;99.90
37544;DHT22;23385;52.038;20.322;2022-09-24T07:08:08;8.10;99.90
37544;DHT22;23385;52.038;20.322;2022-09-24T07:10:34;8.20;99.90
37544;DHT22;23385;52.038;20.322;2022-09-24T07:13:00;8.30;99.90
37544;DHT22;23385;52.038;20.322;2022-09-24T07:15:27;8.40;99.90
37544;DHT22;23385;52.038;20.322;2022-09-24T07:17:56;8.50;99.90
37544;DHT22;23385;52.038;20.322;2022-09-24T07:20:23;8.50;99.90
37544;DHT22;23385;52.038;20.322;2022-09-24T07:22:49;8.70;99.90
37544;DHT22;23385;52.038;20.322;2022-09-24T07:25:16;8.90;99.90
37544;DHT22;23385;52.038;20.322;2022-09-24T07:27:43;9.00;99.90
37544;DHT22;23385;52.038;20.322;2022-09-24T07:30:09;9.20;99.90
37544;DHT22;23385;52.038;20.322;2022-09-24T07:32:35;9.50;99.90
37544;DHT22;23385;52.038;20.322;2022-09-24T07:35:03;9.80;99.90
37544;DHT22;23385;52.038;20.322;2022-09-24T07:37:29;10.10;99.90
37544;DHT22;23385;52.038;20.322;2022-09-24T07:39:58;10.50;99.90
37544;DHT22;23385;52.038;20.322;2022-09-24T07:42:24;10.90;99.90
37544;DHT22;23385;52.038;20.322;2022-09-24T07:44:51;11.30;99.90
37544;DHT22;23385;52.038;20.322;2022-09-24T07:47:17;11.60;99.90
37544;DHT22;23385;52.038;20.322;2022-09-24T07:49:43;12.00;99.90
37544;DHT22;23385;52.038;20.322;2022-09-24T07:52:09;12.40;99.90
37544;DHT22;23385;52.038;20.322;2022-09-24T07:54:37;12.70;99.90
37544;DHT22;23385;52.038;20.322;2022-09-24T07:57:07;13.00;99.90
37544;DHT22;23385;52.038;20.322;2022-09-24T07:59:34;13.30;99.90
37544;DHT22;23385;52.038;20.322;2022-09-24T08:01:59;13.40;99.90
37544;DHT22;23385;52.038;20.322;2022-09-24T08:04:25;13.50;99.90
37544;DHT22;23385;52.038;20.322;2022-09-24T08:06:51;13.70;99.90
37544;DHT22;23385;52.038;20.322;2022-09-24T08:09:17;13.90;99.90
37544;DHT22;23385;52.038;20.322;2022-09-24T08:11:43;14.00;99.90
37544;DHT22;23385;52.038;20.322;2022-09-24T08:14:09;14.10;99.90
37544;DHT22;23385;52.038;20.322;2022-09-24T08:16:35;14.20;99.90
37544;DHT22;23385;52.038;20.322;2022-09-24T08:19:01;14.30;99.90
37544;DHT22;23385;52.038;20.322;2022-09-24T08:21:27;14.40;99.90
37544;DHT22;23385;52.038;20.322;2022-09-24T08:23:53;14.50;99.90
37544;DHT22;23385;52.038;20.322;2022-09-24T08:26:21;14.50;99.90
37544;DHT22;23385;52.038;20.322;2022-09-24T08:28:48;14.50;99.90
37544;DHT22;23385;52.038;20.322;2022-09-24T08:31:17;14.50;99.90
37544;DHT22;23385;52.038;20.322;2022-09-24T08:33:44;14.40;99.90
37544;DHT22;23385;52.038;20.322;2022-09-24T08:36:10;14.40;99.90
37544;DHT22;23385;52.038;20.322;2022-09-24T08:38:38;14.60;99.90
37544;DHT22;23385;52.038;20.322;2022-09-24T08:41:13;14.70;99.90
37544;DHT22;23385;52.038;20.322;2022-09-24T08:44:08;14.80;99.90
37544;DHT22;23385;52.038;20.322;2022-09-24T08:46:43;15.10;99.90
37544;DHT22;23385;52.038;20.322;2022-09-24T08:49:43;15.30;99.90
37544;DHT22;23385;52.038;20.322;2022-09-24T08:55:05;15.60;99.90
37544;DHT22;23385;52.038;20.322;2022-09-24T08:57:38;15.70;99.90
37544;DHT22;23385;52.038;20.322;2022-09-24T09:00:05;15.70;99.90
37544;DHT22;23385;52.038;20.322;2022-09-24T09:02:50;15.70;99.90
37544;DHT22;23385;52.038;20.322;2022-09-24T09:08:18;16.20;99.90
37544;DHT22;23385;52.038;20.322;2022-09-24T09:10:46;16.10;99.90
37544;DHT22;23385;52.038;20.322;2022-09-24T09:13:27;16.20;99.90
37544;DHT22;23385;52.038;20.322;2022-09-24T09:16:11;16.30;99.90
37544;DHT22;23385;52.038;20.322;2022-09-24T09:18:41;16.40;99.90
37544;DHT22;23385;52.038;20.322;2022-09-24T09:21:17;16.40;99.90
37544;DHT22;23385;52.038;20.322;2022-09-24T09:23:51;16.40;99.90
37544;DHT22;23385;52.038;20.322;2022-09-24T09:26:18;16.50;99.90
37544;DHT22;23385;52.038;20.322;2022-09-24T09:28:47;16.50;99.90
37544;DHT22;23385;52.038;20.322;2022-09-24T09:42:23;16.80;99.90
37544;DHT22;23385;52.038;20.322;2022-09-24T09:44:51;16.90;99.90
37544;DHT22;23385;52.038;20.322;2022-09-24T09:47:40;17.00;99.90
37544;DHT22;23385;52.038;20.322;2022-09-24T09:50:25;17.00;99.90
37544;DHT22;23385;52.038;20.322;2022-09-24T09:52:51;17.20;99.90
37544;DHT22;23385;52.038;20.322;2022-09-24T09:55:25;17.40;99.90
37544;DHT22;23385;52.038;20.322;2022-09-24T09:57:52;17.40;99.90
37544;DHT22;23385;52.038;20.322;2022-09-24T10:00:33;17.40;99.90
37544;DHT22;23385;52.038;20.322;2022-09-24T10:02:59;17.60;99.90
37544;DHT22;23385;52.038;20.322;2022-09-24T10:05:26;17.60;99.90
37544;DHT22;23385;52.038;20.322;2022-09-24T10:07:56;17.70;97.50
37544;DHT22;23385;52.038;20.322;2022-09-24T10:10:24;17.80;99.50
37544;DHT22;23385;52.038;20.322;2022-09-24T10:13:04;17.80;96.30
37544;DHT22;23385;52.038;20.322;2022-09-24T10:15:48;17.80;95.90
37544;DHT22;23385;52.038;20.322;2022-09-24T10:18:15;17.70;98.30
37544;DHT22;23385;52.038;20.322;2022-09-24T10:20:45;17.80;99.90
37544;DHT22;23385;52.038;20.322;2022-09-24T10:23:20;17.80;99.90
37544;DHT22;23385;52.038;20.322;2022-09-24T10:25:58;17.80;99.90
37544;DHT22;23385;52.038;20.322;2022-09-24T10:28:25;17.60;99.90
37544;DHT22;23385;52.038;20.322;2022-09-24T10:31:15;17.60;99.90
37544;DHT22;23385;52.038;20.322;2022-09-24T10:33:46;17.60;99.90
37544;DHT22;23385;52.038;20.322;2022-09-24T10:36:18;17.70;99.90
37544;DHT22;23385;52.038;20.322;2022-09-24T10:38:44;17.70;99.90
37544;DHT22;23385;52.038;20.322;2022-09-24T10:41:27;17.70;99.90
37544;DHT22;23385;52.038;20.322;2022-09-24T10:43:56;17.70;99.90
37544;DHT22;23385;52.038;20.322;2022-09-24T10:57:40;17.60;99.90
37544;DHT22;23385;52.038;20.322;2022-09-24T11:00:19;17.60;99.90
37544;DHT22;23385;52.038;20.322;2022-09-24T11:05:46;17.80;99.90
37544;DHT22;23385;52.038;20.322;2022-09-24T11:10:52;17.90;99.90
37544;DHT22;23385;52.038;20.322;2022-09-24T11:13:31;18.00;99.90
37544;DHT22;23385;52.038;20.322;2022-09-24T11:24:15;18.00;96.30
37544;DHT22;23385;52.038;20.322;2022-09-24T11:27:02;18.10;98.40
37544;DHT22;23385;52.038;20.322;2022-09-24T11:37:29;18.40;97.10
37544;DHT22;23385;52.038;20.322;2022-09-24T11:43:27;18.40;96.40
37544;DHT22;23385;52.038;20.322;2022-09-24T11:54:18;18.90;97.40
37544;DHT22;23385;52.038;20.322;2022-09-24T11:56:49;18.60;96.00
37544;DHT22;23385;52.038;20.322;2022-09-24T12:02:09;18.90;93.70
37544;DHT22;23385;52.038;20.322;2022-09-24T12:04:53;18.80;91.90
37544;DHT22;23385;52.038;20.322;2022-09-24T12:07:31;19.00;91.90
37544;DHT22;23385;52.038;20.322;2022-09-24T12:10:47;18.90;91.60
37544;DHT22;23385;52.038;20.322;2022-09-24T12:12:53;18.80;90.40
37544;DHT22;23385;52.038;20.322;2022-09-24T12:18:39;18.60;90.30
37544;DHT22;23385;52.038;20.322;2022-09-24T12:21:14;18.30;89.80
37544;DHT22;23385;52.038;20.322;2022-09-24T12:23:43;18.40;90.90
37544;DHT22;23385;52.038;20.322;2022-09-24T12:26:13;18.40;91.50
37544;DHT22;23385;52.038;20.322;2022-09-24T12:37:48;18.50;91.40
37544;DHT22;23385;52.038;20.322;2022-09-24T12:40:37;18.60;92.10
37544;DHT22;23385;52.038;20.322;2022-09-24T12:43:19;18.60;92.50
37544;DHT22;23385;52.038;20.322;2022-09-24T12:45:55;18.50;92.90
37544;DHT22;23385;52.038;20.322;2022-09-24T12:48:24;18.30;92.80
37544;DHT22;23385;52.038;20.322;2022-09-24T12:50:58;18.20;92.40
37544;DHT22;23385;52.038;20.322;2022-09-24T12:53:34;18.10;93.00
37544;DHT22;23385;52.038;20.322;2022-09-24T12:56:02;18.10;93.10
37544;DHT22;23385;52.038;20.322;2022-09-24T12:58:36;18.30;94.20
37544;DHT22;23385;52.038;20.322;2022-09-24T13:01:12;18.30;94.00
37544;DHT22;23385;52.038;20.322;2022-09-24T13:03:40;18.20;94.50
37544;DHT22;23385;52.038;20.322;2022-09-24T13:08:54;18.10;92.80
37544;DHT22;23385;52.038;20.322;2022-09-24T13:11:33;18.00;92.40
37544;DHT22;23385;52.038;20.322;2022-09-24T13:16:38;18.10;92.70
37544;DHT22;23385;52.038;20.322;2022-09-24T13:21:57;18.10;90.10
37544;DHT22;23385;52.038;20.322;2022-09-24T13:24:32;18.20;89.90
37544;DHT22;23385;52.038;20.322;2022-09-24T13:27:34;18.40;90.50
37544;DHT22;23385;52.038;20.322;2022-09-24T13:33:08;18.40;90.60
37544;DHT22;23385;52.038;20.322;2022-09-24T13:36:09;18.40;90.60
37544;DHT22;23385;52.038;20.322;2022-09-24T13:38:57;18.30;90.30
37544;DHT22;23385;52.038;20.322;2022-09-24T13:44:27;18.10;92.80
37544;DHT22;23385;52.038;20.322;2022-09-24T13:47:23;18.30;94.10
37544;DHT22;23385;52.038;20.322;2022-09-24T13:49:55;18.40;95.50
37544;DHT22;23385;52.038;20.322;2022-09-24T13:52:41;18.50;93.90
37544;DHT22;23385;52.038;20.322;2022-09-24T13:55:33;18.40;93.70
37544;DHT22;23385;52.038;20.322;2022-09-24T13:58:01;18.60;93.00
37544;DHT22;23385;52.038;20.322;2022-09-24T14:00:28;18.60;92.80
37544;DHT22;23385;52.038;20.322;2022-09-24T14:03:04;18.60;92.10
37544;DHT22;23385;52.038;20.322;2022-09-24T14:05:38;18.60;92.90
37544;DHT22;23385;52.038;20.322;2022-09-24T14:08:12;18.60;93.80
37544;DHT22;23385;52.038;20.322;2022-09-24T14:10:39;18.60;92.40
37544;DHT22;23385;52.038;20.322;2022-09-24T14:13:17;18.60;92.60
37544;DHT22;23385;52.038;20.322;2022-09-24T14:16:08;18.60;93.40
37544;DHT22;23385;52.038;20.322;2022-09-24T14:18:34;18.60;95.70
37544;DHT22;23385;52.038;20.322;2022-09-24T14:24:03;18.40;96.90
37544;DHT22;23385;52.038;20.322;2022-09-24T14:32:37;18.00;99.90
37544;DHT22;23385;52.038;20.322;2022-09-24T14:37:37;17.70;99.90
37544;DHT22;23385;52.038;20.322;2022-09-24T14:40:13;17.60;99.90
37544;DHT22;23385;52.038;20.322;2022-09-24T14:42:42;17.50;99.90
37544;DHT22;23385;52.038;20.322;2022-09-24T14:45:30;17.40;99.90
37544;DHT22;23385;52.038;20.322;2022-09-24T14:50:39;17.10;99.90
37544;DHT22;23385;52.038;20.322;2022-09-24T14:53:32;17.00;99.90
37544;DHT22;23385;52.038;20.322;2022-09-24T14:56:19;16.90;99.90
37544;DHT22;23385;52.038;20.322;2022-09-24T14:58:46;16.90;99.90
37544;DHT22;23385;52.038;20.322;2022-09-24T15:01:19;16.80;99.90
37544;DHT22;23385;52.038;20.322;2022-09-24T15:03:50;16.80;99.90
37544;DHT22;23385;52.038;20.322;2022-09-24T15:09:03;16.80;99.90
37544;DHT22;23385;52.038;20.322;2022-09-24T15:11:33;16.70;99.90
37544;DHT22;23385;52.038;20.322;2022-09-24T15:14:21;16.60;99.90
37544;DHT22;23385;52.038;20.322;2022-09-24T15:16:53;16.60;99.90
37544;DHT22;23385;52.038;20.322;2022-09-24T15:19:23;16.50;99.90
37544;DHT22;23385;52.038;20.322;2022-09-24T15:21:53;16.40;99.90
37544;DHT22;23385;52.038;20.322;2022-09-24T15:24:20;16.40;99.90
37544;DHT22;23385;52.038;20.322;2022-09-24T15:26:56;16.20;99.90
37544;DHT22;23385;52.038;20.322;2022-09-24T15:29:24;16.10;99.90
37544;DHT22;23385;52.038;20.322;2022-09-24T15:31:51;16.00;99.90
37544;DHT22;23385;52.038;20.322;2022-09-24T15:34:17;15.90;99.90
37544;DHT22;23385;52.038;20.322;2022-09-24T15:36:46;15.80;99.90
37544;DHT22;23385;52.038;20.322;2022-09-24T15:39:12;15.80;99.90
37544;DHT22;23385;52.038;20.322;2022-09-24T15:41:38;15.80;99.90
37544;DHT22;23385;52.038;20.322;2022-09-24T15:44:05;15.70;99.90
37544;DHT22;23385;52.038;20.322;2022-09-24T15:46:32;15.60;99.90
37544;DHT22;23385;52.038;20.322;2022-09-24T15:48:58;15.50;99.90
37544;DHT22;23385;52.038;20.322;2022-09-24T15:51:25;15.40;99.90
37544;DHT22;23385;52.038;20.322;2022-09-24T15:53:51;15.30;99.90
37544;DHT22;23385;52.038;20.322;2022-09-24T15:56:18;15.20;99.90
37544;DHT22;23385;52.038;20.322;2022-09-24T15:58:44;15.20;99.90
37544;DHT22;23385;52.038;20.322;2022-09-24T16:01:15;15.10;99.90
37544;DHT22;23385;52.038;20.322;2022-09-24T16:03:42;15.00;99.90
37544;DHT22;23385;52.038;20.322;2022-09-24T16:06:10;14.90;99.90
37544;DHT22;23385;52.038;20.322;2022-09-24T16:08:36;14.90;99.90
37544;DHT22;23385;52.038;20.322;2022-09-24T16:11:02;14.80;99.90
37544;DHT22;23385;52.038;20.322;2022-09-24T16:13:30;14.70;99.90
37544;DHT22;23385;52.038;20.322;2022-09-24T16:15:57;14.60;99.90
37544;DHT22;23385;52.038;20.322;2022-09-24T16:18:23;14.60;99.90
37544;DHT22;23385;52.038;20.322;2022-09-24T16:20:50;14.50;99.90
37544;DHT22;23385;52.038;20.322;2022-09-24T16:23:17;14.40;99.90
37544;DHT22;23385;52.038;20.322;2022-09-24T16:25:57;14.30;99.90
37544;DHT22;23385;52.038;20.322;2022-09-24T16:28:24;14.20;99.90
37544;DHT22;23385;52.038;20.322;2022-09-24T16:30:50;14.20;99.90
37544;DHT22;23385;52.038;20.322;2022-09-24T16:33:16;14.10;99.90
37544;DHT22;23385;52.038;20.322;2022-09-24T16:35:43;14.00;99.90
37544;DHT22;23385;52.038;20.322;2022-09-24T16:38:09;13.90;99.90
37544;DHT22;23385;52.038;20.322;2022-09-24T16:40:36;13.80;99.90
37544;DHT22;23385;52.038;20.322;2022-09-24T16:43:02;13.70;99.90
37544;DHT22;23385;52.038;20.322;2022-09-24T16:45:29;13.60;99.90
37544;DHT22;23385;52.038;20.322;2022-09-24T16:47:55;13.50;99.90
37544;DHT22;23385;52.038;20.322;2022-09-24T16:50:22;13.40;99.90
37544;DHT22;23385;52.038;20.322;2022-09-24T16:52:48;13.30;99.90
37544;DHT22;23385;52.038;20.322;2022-09-24T16:55:15;13.30;99.90
37544;DHT22;23385;52.038;20.322;2022-09-24T16:57:41;13.20;99.90
37544;DHT22;23385;52.038;20.322;2022-09-24T17:00:08;13.10;99.90
37544;DHT22;23385;52.038;20.322;2022-09-24T17:02:35;13.00;99.90
37544;DHT22;23385;52.038;20.322;2022-09-24T17:05:02;12.90;99.90
37544;DHT22;23385;52.038;20.322;2022-09-24T17:07:29;12.80;99.90
37544;DHT22;23385;52.038;20.322;2022-09-24T17:09:56;12.80;99.90
37544;DHT22;23385;52.038;20.322;2022-09-24T17:12:42;12.70;99.90
37544;DHT22;23385;52.038;20.322;2022-09-24T17:15:09;12.60;99.90
37544;DHT22;23385;52.038;20.322;2022-09-24T17:17:36;12.50;99.90
37544;DHT22;23385;52.038;20.322;2022-09-24T17:20:03;12.40;99.90
37544;DHT22;23385;52.038;20.322;2022-09-24T17:22:29;12.30;99.90
37544;DHT22;23385;52.038;20.322;2022-09-24T17:24:56;12.20;99.90
37544;DHT22;23385;52.038;20.322;2022-09-24T17:27:22;12.10;99.90
37544;DHT22;23385;52.038;20.322;2022-09-24T17:29:48;12.00;99.90
37544;DHT22;23385;52.038;20.322;2022-09-24T17:32:14;11.90;99.90
37544;DHT22;23385;52.038;20.322;2022-09-24T17:34:39;11.80;99.90
37544;DHT22;23385;52.038;20.322;2022-09-24T17:37:05;11.80;99.90
37544;DHT22;23385;52.038;20.322;2022-09-24T17:39:31;11.80;99.90
37544;DHT22;23385;52.038;20.322;2022-09-24T17:41:59;11.70;99.90
37544;DHT22;23385;52.038;20.322;2022-09-24T17:44:27;11.70;99.90
37544;DHT22;23385;52.038;20.322;2022-09-24T17:46:54;11.70;99.90